那覇 の空港の天気 - METARとTAF

那覇空港 ( ROAH / OKA ) - 沖縄県那覇市
飛行場実況気象(Metar)
観測時間05/27 03:00 JST (05/26 18:00 UTC)
風向・風速北 5m/s
視程10km以上
天気現象
全天の4割程度の雲 雲底高度 150m
全天の8割程度の雲 雲底高度 210m
全天を覆う雲 雲底高度 270m
気温22℃
湿度94%
気圧1004hPa
METARROAH 261800Z AUTO 35010KT 9999 SCT005 BKN007 OVC009 //////TCU 22/21 Q1004 RMK A2966 TCU 30KM SW MOV UNKNOWN
過去の天気等 Google飛行場航空写真 Wunderground天気予報

過去48時間のMETAR

飛行場予報(TAF)
発表時間: 5/27 02:12 JST (5/26 17:12 UTC)
予報対象時間: 27日3時 JST ~ 28日9時 JST
風向・風速北 4m/s
視程10km以上
天気現象弱いしゅう雨
少しの雲 雲底高度 240m
全天の8割程度の雲 雲底高度 460m
27日3時 JST ~ 27日6時 JST に一時的に
視程4000m
天気現象しゅう雨
少しの雲 雲底高度 150m
全天の8割程度の雲 雲底高度 240m
全天の8割程度の雲 雲底高度 370m
少しの積乱雲 雲底高度 610m
27日6時 JST ~ 27日12時 JST に一時的に
視程4000m
天気現象しゅう雨
少しの雲 雲底高度 150m
全天の8割程度の雲 雲底高度 240m
全天の8割程度の雲 雲底高度 370m
28日0時 JST ~ 28日9時 JST に一時的に
少しの雲 雲底高度 150m
全天の8割程度の雲 雲底高度 240m
全天の8割程度の雲 雲底高度 370m
TAF ROAH 261712Z 2618/2800 35007KT 9999 -SHRA FEW008 BKN015
TEMPO 2618/2621 4000 SHRA FEW005 BKN008 BKN012 FEW020CB
TEMPO 2621/2703 4000 SHRA FEW005 BKN008 BKN012
TEMPO 2715/2800 FEW005 BKN008 BKN012
日本の空港のMETAR・TAFへのリンク

RJTT 東京国際空港
RJAA 新東京国際空港
RJBB 関西国際空港
RJOO 大阪空港
RJGG 中部国際空港
RJCC 新千歳空港
RJFF 福岡空港
ROAH 那覇空港


RJEC 旭川空港
RJCH 函館空港
RJCK 釧路空港
RJCM 女満別空港
RJCB 帯広空港
RJSA 青森空港
RJSS 仙台空港
RJSK 秋田空港
RJSF 福島空港
RJAH 茨城空港
RJSN 新潟空港
RJNT 富山空港
RJNK 小松飛行場
RJNS 静岡空港
RJOH 美保飛行場
RJOC 出雲空港
RJOB 岡山空港
RJOA 広島空港
RJOI 岩国飛行場
RJOT 高松空港
RJOM 松山空港
RJOK 高知空港
RJFR 北九州空港
RJFT 熊本空港
RJFU 長崎空港
RJFS 佐賀空港
RJFO 大分空港
RJFM 宮崎空港
RJFK 鹿児島空港
ROIG 石垣島空港
RJTY 横田飛行場
ROTM 普天間飛行場
RODN 嘉手納飛行場